createdAt,value
2023-04-05T00:00:57.073Z,1.60
2023-04-05T00:02:01.671Z,1.60
2023-04-05T00:03:06.164Z,1.60
2023-04-05T00:04:09.209Z,1.50
2023-04-05T00:05:13.195Z,1.50
2023-04-05T00:06:16.910Z,1.60
2023-04-05T00:07:21.714Z,1.50
2023-04-05T00:08:24.473Z,1.50
2023-04-05T00:09:28.840Z,2.60
2023-04-05T00:10:32.141Z,1.50
2023-04-05T00:11:36.329Z,1.50
2023-04-05T00:12:38.959Z,4.30
2023-04-05T00:13:43.518Z,-0.50
2023-04-05T00:14:47.433Z,1.40
2023-04-05T00:15:51.945Z,1.40
2023-04-05T00:16:55.902Z,1.70
2023-04-05T00:18:04.108Z,1.40
2023-04-05T00:19:06.974Z,1.40
2023-04-05T00:20:12.101Z,1.40
2023-04-05T00:21:14.779Z,1.40
2023-04-05T00:22:26.357Z,1.40
2023-04-05T00:23:37.607Z,1.40
2023-04-05T00:24:43.965Z,4.20
2023-04-05T00:25:46.842Z,1.40
2023-04-05T00:26:50.267Z,1.40
2023-04-05T00:27:56.042Z,1.30
2023-04-05T00:28:59.629Z,2.50
2023-04-05T00:30:02.614Z,1.30
2023-04-05T00:31:08.229Z,1.30
2023-04-05T00:32:10.802Z,1.40
2023-04-05T00:33:16.000Z,1.30
2023-04-05T00:34:18.514Z,1.30
2023-04-05T00:35:22.677Z,1.30
2023-04-05T00:36:25.186Z,3.40
2023-04-05T00:37:31.585Z,1.30
2023-04-05T00:38:34.868Z,1.30
2023-04-05T00:39:39.213Z,-1.50
2023-04-05T00:40:41.893Z,1.30
2023-04-05T00:41:48.807Z,1.80
2023-04-05T00:42:51.984Z,1.60
2023-04-05T00:43:57.201Z,3.60
2023-04-05T00:45:02.945Z,1.30
2023-04-05T00:46:07.945Z,1.30
2023-04-05T00:47:14.513Z,1.30
2023-04-05T00:48:18.617Z,4.00
2023-04-05T00:49:22.541Z,1.30
2023-04-05T00:50:25.954Z,1.30
2023-04-05T00:51:31.970Z,-0.60
2023-04-05T00:52:37.952Z,1.30
2023-04-05T00:53:45.993Z,1.30
2023-04-05T00:54:55.521Z,1.20
2023-04-05T00:55:58.513Z,1.20
2023-04-05T00:57:05.237Z,1.20
2023-04-05T00:58:10.785Z,1.80
2023-04-05T00:59:16.125Z,1.30
2023-04-05T01:00:23.481Z,-0.40
2023-04-05T01:01:28.499Z,1.30
2023-04-05T01:02:34.758Z,1.20
2023-04-05T01:03:44.937Z,1.20
2023-04-05T01:05:01.603Z,1.30
2023-04-05T01:06:21.559Z,4.10
2023-04-05T01:07:43.977Z,1.20
2023-04-05T01:09:00.951Z,1.20
2023-04-05T01:10:06.628Z,1.20
2023-04-05T01:11:12.336Z,1.30
2023-04-05T01:12:21.158Z,4.10
2023-04-05T01:13:26.062Z,1.10
2023-04-05T01:14:29.788Z,3.30
2023-04-05T01:15:35.814Z,1.10
2023-04-05T01:16:42.574Z,1.20
2023-04-05T01:17:47.538Z,1.10
2023-04-05T01:18:56.789Z,1.10
2023-04-05T01:20:04.144Z,1.10
2023-04-05T01:21:40.454Z,1.10
2023-04-05T01:23:17.369Z,1.10
2023-04-05T01:24:33.768Z,1.10
2023-04-05T01:26:18.890Z,1.10
2023-04-05T01:27:32.083Z,3.20
2023-04-05T01:28:58.573Z,1.20
2023-04-05T01:30:08.950Z,3.40
2023-04-05T01:31:21.509Z,1.20
2023-04-05T01:32:49.379Z,1.20
2023-04-05T01:34:00.002Z,1.20
2023-04-05T01:35:12.092Z,1.20
2023-04-05T01:36:31.730Z,1.30
2023-04-05T01:37:38.687Z,1.30
2023-04-05T01:38:47.721Z,1.90
2023-04-05T01:39:52.870Z,1.30
2023-04-05T01:40:58.667Z,1.30
2023-04-05T01:42:04.008Z,1.20
2023-04-05T01:43:13.749Z,1.70
2023-04-05T01:44:17.434Z,1.20
2023-04-05T01:45:21.513Z,1.30
2023-04-05T01:46:25.308Z,1.20
2023-04-05T01:47:28.462Z,1.30
2023-04-05T01:48:32.547Z,1.20
2023-04-05T01:49:36.351Z,1.30
2023-04-05T01:50:40.778Z,1.00
2023-04-05T01:51:43.967Z,1.30
2023-04-05T01:52:47.737Z,1.20
2023-04-05T01:53:52.284Z,1.20
2023-04-05T01:54:55.927Z,1.20
2023-04-05T01:56:01.701Z,1.20
2023-04-05T01:57:06.647Z,1.10
2023-04-05T01:58:09.383Z,0.70
2023-04-05T01:59:13.344Z,1.80
2023-04-05T02:00:18.744Z,1.20
2023-04-05T02:01:24.226Z,1.20
2023-04-05T02:02:26.756Z,1.20
2023-04-05T02:03:31.846Z,3.40
2023-04-05T02:04:36.963Z,1.80
2023-04-05T02:05:43.869Z,1.10
2023-04-05T02:06:46.662Z,1.70
2023-04-05T02:07:52.802Z,0.30
2023-04-05T02:08:55.761Z,1.40
2023-04-05T02:10:02.787Z,1.10
2023-04-05T02:11:05.978Z,1.10
2023-04-05T02:12:10.032Z,1.10
2023-04-05T02:13:15.321Z,1.00
2023-04-05T02:14:18.703Z,1.10
2023-04-05T02:15:21.104Z,1.00
2023-04-05T02:16:30.395Z,1.10
2023-04-05T02:17:39.854Z,-1.40
2023-04-05T02:18:43.796Z,1.50
2023-04-05T02:19:49.953Z,1.80
2023-04-05T02:20:53.832Z,1.10
2023-04-05T02:21:56.918Z,1.50
2023-04-05T02:23:03.377Z,1.00
2023-04-05T02:24:06.446Z,2.30
2023-04-05T02:25:10.684Z,2.10
2023-04-05T02:26:13.866Z,1.00
2023-04-05T02:27:21.906Z,1.00
2023-04-05T02:28:29.858Z,1.50
2023-04-05T02:29:34.954Z,1.00
2023-04-05T02:31:28.285Z,1.00
2023-04-05T02:32:32.541Z,0.90
2023-04-05T02:33:39.106Z,0.90
2023-04-05T02:34:41.599Z,0.90
2023-04-05T02:35:45.669Z,0.90
2023-04-05T02:36:49.501Z,0.90
2023-04-05T02:37:53.378Z,1.00
2023-04-05T02:38:58.248Z,0.40
2023-04-05T02:40:01.815Z,0.90
2023-04-05T02:41:04.936Z,0.90
2023-04-05T02:42:08.838Z,0.80
2023-04-05T02:43:11.441Z,0.80
2023-04-05T02:44:16.178Z,0.80
2023-04-05T02:45:21.635Z,0.80
2023-04-05T02:46:29.112Z,0.20
2023-04-05T02:47:33.674Z,0.80
2023-04-05T02:48:38.882Z,0.80
2023-04-05T02:49:44.646Z,0.80
2023-04-05T02:50:52.904Z,-0.50
2023-04-05T02:51:56.917Z,0.70
2023-04-05T02:53:03.790Z,0.70
2023-04-05T02:54:09.901Z,0.80
2023-04-05T02:55:13.901Z,0.90
2023-04-05T02:56:16.373Z,2.30
2023-04-05T02:57:22.729Z,0.70
2023-04-05T02:58:31.539Z,0.80
2023-04-05T02:59:36.768Z,0.80
2023-04-05T03:00:41.225Z,1.20
2023-04-05T03:01:46.632Z,2.20
2023-04-05T03:03:02.067Z,0.70
2023-04-05T03:04:09.556Z,0.70
2023-04-05T03:05:17.394Z,1.00
2023-04-05T03:06:24.734Z,1.10
2023-04-05T03:07:33.649Z,0.60
2023-04-05T03:08:44.168Z,0.60
2023-04-05T03:09:51.514Z,0.60
2023-04-05T03:10:57.241Z,-0.60
2023-04-05T03:12:04.057Z,0.60
2023-04-05T03:13:12.054Z,0.60
2023-04-05T03:14:15.586Z,0.50
2023-04-05T03:15:24.695Z,0.70
2023-04-05T03:16:33.037Z,0.60
2023-04-05T03:17:44.396Z,1.00
2023-04-05T03:18:50.459Z,0.60
2023-04-05T03:19:54.255Z,0.60
2023-04-05T03:21:00.506Z,0.60
2023-04-05T03:22:04.675Z,0.60
2023-04-05T03:23:11.555Z,0.60
2023-04-05T03:24:17.379Z,0.60
2023-04-05T03:25:20.158Z,0.60
2023-04-05T03:26:25.469Z,3.40
2023-04-05T03:27:29.694Z,0.60
2023-04-05T03:28:47.199Z,0.60
2023-04-05T03:29:49.735Z,0.60
2023-04-05T03:30:55.220Z,0.70
2023-04-05T03:31:59.025Z,0.90
2023-04-05T03:33:03.384Z,1.30
2023-04-05T03:34:20.000Z,0.70
2023-04-05T03:35:25.362Z,0.10
2023-04-05T03:36:42.097Z,0.70
2023-04-05T03:37:56.024Z,0.70
2023-04-05T03:39:02.663Z,0.70
2023-04-05T03:40:10.758Z,0.60
2023-04-05T03:41:19.608Z,0.70
2023-04-05T03:42:22.559Z,0.80
2023-04-05T03:43:27.883Z,0.80
2023-04-05T03:44:32.253Z,0.80
2023-04-05T03:45:38.906Z,3.20
2023-04-05T03:46:42.608Z,0.80
2023-04-05T03:47:46.567Z,0.80
2023-04-05T03:48:51.662Z,0.80
2023-04-05T03:49:58.558Z,0.80
2023-04-05T03:51:01.430Z,0.80
2023-04-05T03:52:07.610Z,0.80
2023-04-05T03:53:10.373Z,-1.60
2023-04-05T03:54:17.193Z,-0.20
2023-04-05T03:55:24.657Z,3.40
2023-04-05T03:56:29.441Z,0.60
2023-04-05T03:57:38.957Z,0.80
2023-04-05T03:58:56.299Z,2.70
2023-04-05T04:00:14.097Z,0.90
2023-04-05T04:01:18.872Z,0.90
2023-04-05T04:02:24.449Z,0.90
2023-04-05T04:03:29.229Z,0.90
2023-04-05T04:04:32.115Z,1.00
2023-04-05T04:05:39.425Z,0.90
2023-04-05T04:06:43.782Z,0.90
2023-04-05T04:07:47.746Z,2.60
2023-04-05T04:08:52.096Z,1.00
2023-04-05T04:09:56.882Z,1.00
2023-04-05T04:11:02.953Z,0.60
2023-04-05T04:12:14.148Z,1.00
2023-04-05T04:13:27.147Z,1.00
2023-04-05T04:14:50.272Z,1.70
2023-04-05T04:16:19.181Z,1.00
2023-04-05T04:17:37.666Z,1.10
2023-04-05T04:19:07.509Z,1.30
2023-04-05T04:20:21.592Z,1.50
2023-04-05T04:21:54.830Z,1.70
2023-04-05T04:23:15.258Z,2.00
2023-04-05T04:24:32.722Z,2.10
2023-04-05T04:25:39.826Z,2.10
2023-04-05T04:27:20.152Z,2.20
2023-04-05T04:28:44.934Z,2.30
2023-04-05T04:30:04.110Z,2.10
2023-04-05T04:31:23.755Z,3.60
2023-04-05T04:32:56.423Z,2.90
2023-04-05T04:34:21.454Z,2.00
2023-04-05T04:35:48.090Z,1.90
2023-04-05T04:37:17.784Z,1.80
2023-04-05T04:39:05.635Z,0.50
2023-04-05T04:40:29.575Z,1.80
2023-04-05T04:41:47.252Z,1.80
2023-04-05T04:43:14.596Z,1.80
2023-04-05T04:44:35.329Z,1.80
2023-04-05T04:45:57.628Z,3.00
2023-04-05T04:47:17.674Z,2.20
2023-04-05T04:48:38.212Z,1.80
2023-04-05T04:49:49.395Z,1.80
2023-04-05T04:50:53.193Z,1.80
2023-04-05T04:51:58.861Z,1.80
2023-04-05T04:53:07.535Z,1.80
2023-04-05T04:54:11.120Z,1.80
2023-04-05T04:55:20.076Z,1.80
2023-04-05T04:56:24.067Z,1.80
2023-04-05T04:57:27.630Z,1.90
2023-04-05T04:58:35.468Z,1.80
2023-04-05T04:59:43.862Z,1.70
2023-04-05T05:00:55.844Z,2.00
2023-04-05T05:01:58.896Z,2.50
2023-04-05T05:03:02.662Z,1.80
2023-04-05T05:04:05.700Z,1.80
2023-04-05T05:05:13.435Z,1.80
2023-04-05T05:06:17.985Z,1.80
2023-04-05T05:07:22.594Z,1.30
2023-04-05T05:08:29.326Z,1.80
2023-04-05T05:09:32.786Z,1.90
2023-04-05T05:10:35.675Z,1.90
2023-04-05T05:11:41.519Z,2.00
2023-04-05T05:12:48.838Z,3.40
2023-04-05T05:13:53.523Z,1.90
2023-04-05T05:15:00.704Z,2.00
2023-04-05T05:16:04.559Z,1.90
2023-04-05T05:17:11.553Z,1.90
2023-04-05T05:18:14.794Z,1.90
2023-04-05T05:19:19.163Z,1.90
2023-04-05T05:20:28.776Z,2.00
2023-04-05T05:21:31.543Z,2.00
2023-04-05T05:22:38.903Z,4.70
2023-04-05T05:23:43.397Z,1.90
2023-04-05T05:24:48.234Z,5.00
2023-04-05T05:25:57.584Z,1.90
2023-04-05T05:27:00.961Z,4.40
2023-04-05T05:28:03.956Z,2.00
2023-04-05T05:29:09.541Z,2.00
2023-04-05T05:30:17.118Z,2.00
2023-04-05T05:31:20.696Z,2.80
2023-04-05T05:32:26.518Z,2.00
2023-04-05T05:33:30.218Z,4.70
2023-04-05T05:34:33.740Z,2.00
2023-04-05T05:35:38.388Z,2.10
2023-04-05T05:36:41.913Z,2.10
2023-04-05T05:37:44.450Z,2.10
2023-04-05T05:38:49.600Z,2.20
2023-04-05T05:39:52.021Z,2.10
2023-04-05T05:40:58.999Z,2.20
2023-04-05T05:42:03.438Z,2.60
2023-04-05T05:43:06.952Z,2.40
2023-04-05T05:44:09.744Z,2.20
2023-04-05T05:45:13.572Z,2.30
2023-04-05T05:46:16.578Z,2.30
2023-04-05T05:47:23.476Z,4.10
2023-04-05T05:48:28.264Z,2.30
2023-04-05T05:49:32.319Z,2.30
2023-04-05T05:50:35.395Z,2.30
2023-04-05T05:51:38.908Z,5.80
2023-04-05T05:52:41.228Z,5.20
2023-04-05T05:53:47.305Z,2.50
2023-04-05T05:54:51.475Z,2.50
2023-04-05T05:55:58.284Z,2.50
2023-04-05T05:57:00.967Z,2.60
2023-04-05T05:58:05.154Z,2.60
2023-04-05T05:59:07.953Z,2.70
2023-04-05T06:00:12.810Z,3.10
2023-04-05T06:01:16.629Z,2.70
2023-04-05T06:02:20.592Z,2.70
2023-04-05T06:03:23.800Z,3.00
2023-04-05T06:04:29.090Z,2.70
2023-04-05T06:05:32.047Z,2.70
2023-04-05T06:06:37.259Z,5.40
2023-04-05T06:07:40.451Z,2.70
2023-04-05T06:08:44.231Z,2.70
2023-04-05T06:09:47.675Z,2.80
2023-04-05T06:10:53.351Z,2.80
2023-04-05T06:11:58.999Z,2.80
2023-04-05T06:13:02.526Z,2.90
2023-04-05T06:14:04.928Z,2.90
2023-04-05T06:15:10.498Z,2.90
2023-04-05T06:16:15.643Z,3.00
2023-04-05T06:17:19.248Z,3.20
2023-04-05T06:18:25.223Z,2.30
2023-04-05T06:19:28.956Z,2.90
2023-04-05T06:20:31.627Z,2.90
2023-04-05T06:21:35.424Z,3.00
2023-04-05T06:22:40.345Z,4.10
2023-04-05T06:23:46.599Z,3.20
2023-04-05T06:24:49.131Z,3.10
2023-04-05T06:25:59.402Z,3.30
2023-04-05T06:27:02.081Z,5.70
2023-04-05T06:28:07.002Z,3.00
2023-04-05T06:29:10.559Z,3.00
2023-04-05T06:30:14.194Z,3.00
2023-04-05T06:31:32.819Z,3.00
2023-04-05T06:32:38.165Z,3.00
2023-04-05T06:33:41.704Z,3.10
2023-04-05T06:34:46.653Z,5.30
2023-04-05T06:35:50.233Z,3.00
2023-04-05T06:36:54.226Z,3.10
2023-04-05T06:37:59.551Z,3.10
2023-04-05T06:39:07.006Z,3.40
2023-04-05T06:40:14.479Z,3.00
2023-04-05T06:41:21.352Z,3.00
2023-04-05T06:42:28.025Z,3.20
2023-04-05T06:43:38.739Z,3.00
2023-04-05T06:44:44.833Z,3.10
2023-04-05T06:45:49.316Z,3.10
2023-04-05T06:46:51.797Z,3.00
2023-04-05T06:47:55.556Z,3.20
2023-04-05T06:49:01.572Z,6.20
2023-04-05T06:50:13.969Z,3.00
2023-04-05T06:51:18.182Z,3.00
2023-04-05T06:52:20.664Z,3.00
2023-04-05T06:53:27.612Z,3.00
2023-04-05T06:54:31.498Z,3.20
2023-04-05T06:55:34.040Z,1.20
2023-04-05T06:56:39.273Z,3.00
2023-04-05T06:57:44.276Z,3.60
2023-04-05T06:58:51.068Z,3.40
2023-04-05T06:59:55.549Z,2.90
2023-04-05T07:00:59.451Z,2.90
2023-04-05T07:02:07.453Z,2.90
2023-04-05T07:03:12.096Z,2.90
2023-04-05T07:04:18.398Z,2.90
2023-04-05T07:05:21.336Z,3.00
2023-04-05T07:06:25.268Z,3.60
2023-04-05T07:07:27.871Z,5.80
2023-04-05T07:08:35.721Z,3.00
2023-04-05T07:09:43.192Z,3.00
2023-04-05T07:10:47.118Z,3.10
2023-04-05T07:11:52.282Z,3.10
2023-04-05T07:12:58.715Z,3.10
2023-04-05T07:14:01.471Z,6.00
2023-04-05T07:15:05.663Z,3.60
2023-04-05T07:16:11.790Z,3.10
2023-04-05T07:17:14.544Z,3.40
2023-04-05T07:18:23.564Z,3.20
2023-04-05T07:19:26.577Z,3.50
2023-04-05T07:20:31.698Z,3.20
2023-04-05T07:21:38.772Z,5.20
2023-04-05T07:22:41.483Z,3.70
2023-04-05T07:23:47.107Z,3.20
2023-04-05T07:24:52.527Z,0.30
2023-04-05T07:25:55.209Z,3.30
2023-04-05T07:27:03.189Z,3.30
2023-04-05T07:28:06.068Z,3.30
2023-04-05T07:29:12.616Z,3.20
2023-04-05T07:30:15.944Z,3.30
2023-04-05T07:31:22.468Z,3.30
2023-04-05T07:32:27.231Z,3.40
2023-04-05T07:33:31.008Z,3.40
2023-04-05T07:34:39.220Z,3.40
2023-04-05T07:35:41.673Z,3.40
2023-04-05T07:36:47.045Z,3.50
2023-04-05T07:37:51.375Z,3.40
2023-04-05T07:38:54.760Z,3.50
2023-04-05T07:39:59.275Z,3.40
2023-04-05T07:41:02.153Z,2.90
2023-04-05T07:42:10.565Z,3.40
2023-04-05T07:43:13.991Z,3.50
2023-04-05T07:44:17.977Z,3.50
2023-04-05T07:45:21.029Z,3.50
2023-04-05T07:46:24.608Z,3.50
2023-04-05T07:47:37.429Z,3.70
2023-04-05T07:48:43.171Z,1.00
2023-04-05T07:49:48.512Z,3.60
2023-04-05T07:50:57.461Z,3.60
2023-04-05T07:52:01.214Z,3.60
2023-04-05T07:53:07.645Z,3.60
2023-04-05T07:54:14.237Z,3.60
2023-04-05T07:55:17.859Z,3.70
2023-04-05T07:56:21.516Z,3.70
2023-04-05T07:57:26.566Z,3.70
2023-04-05T07:58:32.764Z,3.70
2023-04-05T07:59:37.880Z,3.80
2023-04-05T08:00:42.260Z,3.80
2023-04-05T08:01:50.320Z,3.90
2023-04-05T08:03:02.440Z,3.80
2023-04-05T08:04:06.584Z,3.80
2023-04-05T08:05:09.570Z,3.80
2023-04-05T08:06:14.594Z,3.80
2023-04-05T08:07:19.813Z,3.80
2023-04-05T08:08:26.582Z,3.90
2023-04-05T08:09:36.067Z,6.20
2023-04-05T08:10:44.106Z,3.90
2023-04-05T08:11:48.393Z,3.90
2023-04-05T08:12:52.411Z,4.90
2023-04-05T08:13:58.924Z,6.90
2023-04-05T08:15:02.591Z,3.30
2023-04-05T08:16:05.710Z,4.00
2023-04-05T08:17:09.123Z,3.90
2023-04-05T08:18:12.803Z,3.90
2023-04-05T08:19:16.517Z,4.00
2023-04-05T08:20:22.692Z,4.00
2023-04-05T08:21:28.761Z,4.00
2023-04-05T08:22:35.593Z,5.10
2023-04-05T08:23:39.752Z,5.10
2023-04-05T08:24:47.031Z,4.10
2023-04-05T08:25:51.514Z,4.10
2023-04-05T08:26:56.376Z,4.20
2023-04-05T08:28:02.350Z,4.10
2023-04-05T08:29:06.069Z,4.20
2023-04-05T08:30:13.767Z,4.20
2023-04-05T08:31:22.814Z,4.30
2023-04-05T08:32:25.608Z,4.20
2023-04-05T08:33:31.206Z,4.20
2023-04-05T08:34:35.301Z,4.20
2023-04-05T08:35:39.151Z,4.10
2023-04-05T08:36:47.565Z,4.40
2023-04-05T08:37:53.816Z,4.50
2023-04-05T08:39:01.949Z,2.30
2023-04-05T08:40:06.456Z,4.60
2023-04-05T08:41:23.452Z,4.60
2023-04-05T08:42:35.986Z,4.60
2023-04-05T08:43:57.633Z,4.60
2023-04-05T08:45:05.875Z,4.60
2023-04-05T08:46:11.301Z,7.10
2023-04-05T08:47:19.634Z,4.70
2023-04-05T08:48:25.036Z,4.40
2023-04-05T08:49:29.541Z,4.30
2023-04-05T08:50:31.976Z,4.30
2023-04-05T08:51:39.483Z,4.30
2023-04-05T08:52:50.009Z,4.30
2023-04-05T08:53:53.242Z,4.40
2023-04-05T08:54:58.528Z,4.40
2023-04-05T08:56:03.392Z,4.50
2023-04-05T08:57:11.228Z,4.50
2023-04-05T08:58:15.579Z,6.20
2023-04-05T08:59:22.304Z,4.70
2023-04-05T09:00:27.365Z,4.60
2023-04-05T09:01:31.553Z,4.60
2023-04-05T09:02:39.482Z,4.60
2023-04-05T09:03:47.998Z,4.70
2023-04-05T09:04:54.888Z,4.80
2023-04-05T09:06:01.000Z,4.70
2023-04-05T09:07:10.426Z,4.80
2023-04-05T09:08:18.619Z,4.80
2023-04-05T09:09:24.640Z,4.70
2023-04-05T09:10:31.134Z,4.80
2023-04-05T09:11:36.274Z,4.80
2023-04-05T09:12:42.313Z,4.80
2023-04-05T09:13:46.736Z,4.90
2023-04-05T09:14:57.310Z,4.80
2023-04-05T09:16:02.679Z,4.80
2023-04-05T09:17:07.546Z,4.90
2023-04-05T09:18:23.150Z,4.90
2023-04-05T09:19:29.461Z,4.90
2023-04-05T09:20:33.185Z,5.00
2023-04-05T09:22:01.016Z,5.00
2023-04-05T09:23:06.436Z,4.90
2023-04-05T09:24:12.316Z,5.00
2023-04-05T09:25:38.983Z,5.00
2023-04-05T09:26:45.537Z,5.00
2023-04-05T09:27:57.416Z,4.90
2023-04-05T09:29:07.105Z,4.90
2023-04-05T09:30:24.007Z,7.20
2023-04-05T09:31:35.839Z,5.00
2023-04-05T09:32:50.928Z,5.10
2023-04-05T09:33:54.965Z,5.10
2023-04-05T09:35:04.397Z,5.10
2023-04-05T09:36:12.560Z,5.10
2023-04-05T09:37:21.891Z,5.10
2023-04-05T09:38:46.109Z,5.00
2023-04-05T09:39:52.222Z,5.00
2023-04-05T09:41:01.430Z,7.70
2023-04-05T09:42:12.027Z,5.10
2023-04-05T09:43:39.894Z,5.10
2023-04-05T09:44:56.146Z,5.10
2023-04-05T09:46:04.101Z,6.20
2023-04-05T09:47:17.425Z,5.00
2023-04-05T09:48:23.022Z,5.00
2023-04-05T09:49:34.073Z,4.90
2023-04-05T09:50:38.921Z,4.80
2023-04-05T09:51:43.710Z,4.60
2023-04-05T09:52:49.413Z,4.70
2023-04-05T09:54:03.482Z,4.80
2023-04-05T09:55:08.775Z,4.90
2023-04-05T09:56:11.873Z,5.00
2023-04-05T09:57:18.464Z,5.00
2023-04-05T09:58:23.258Z,5.10
2023-04-05T09:59:26.218Z,6.50
2023-04-05T10:00:36.856Z,4.90
2023-04-05T10:01:45.948Z,5.00
2023-04-05T10:02:55.226Z,4.90
2023-04-05T10:04:01.276Z,4.90
2023-04-05T10:05:11.660Z,5.00
2023-04-05T10:06:15.763Z,5.00
2023-04-05T10:07:21.292Z,5.70
2023-04-05T10:08:26.529Z,4.90
2023-04-05T10:09:30.405Z,5.00
2023-04-05T10:10:47.635Z,5.00
2023-04-05T10:11:52.437Z,5.10
2023-04-05T10:12:58.831Z,6.80
2023-04-05T10:14:04.060Z,5.10
2023-04-05T10:15:09.395Z,5.00
2023-04-05T10:16:26.642Z,5.00
2023-04-05T10:17:40.865Z,5.10
2023-04-05T10:18:51.730Z,5.20
2023-04-05T10:20:08.615Z,5.20
2023-04-05T10:21:17.261Z,5.30
2023-04-05T10:22:30.665Z,5.30
2023-04-05T10:23:36.961Z,5.40
2023-04-05T10:24:50.325Z,5.50
2023-04-05T10:26:06.818Z,5.50
2023-04-05T10:27:18.519Z,5.70
2023-04-05T10:28:31.763Z,5.70
2023-04-05T10:29:50.343Z,3.20
2023-04-05T10:31:07.307Z,5.80
2023-04-05T10:32:19.402Z,3.50
2023-04-05T10:33:38.350Z,5.80
2023-04-05T10:34:59.203Z,4.50
2023-04-05T10:36:16.700Z,5.50
2023-04-05T10:37:39.582Z,5.40
2023-04-05T10:39:04.848Z,5.30
2023-04-05T10:40:11.861Z,5.60
2023-04-05T10:41:15.209Z,5.50
2023-04-05T10:42:27.823Z,5.60
2023-04-05T10:43:35.693Z,5.70
2023-04-05T10:44:41.320Z,5.80
2023-04-05T10:45:49.320Z,5.70
2023-04-05T10:46:54.446Z,5.70
2023-04-05T10:48:16.432Z,5.60
2023-04-05T10:49:37.439Z,5.60
2023-04-05T10:50:42.150Z,5.70
2023-04-05T10:51:47.745Z,5.70
2023-04-05T10:52:52.295Z,5.80
2023-04-05T10:53:57.973Z,5.90
2023-04-05T10:55:03.750Z,8.20
2023-04-05T10:56:10.630Z,9.30
2023-04-05T10:57:18.846Z,6.00
2023-04-05T10:58:26.847Z,7.40
2023-04-05T10:59:39.198Z,5.90
2023-04-05T11:00:44.294Z,5.80
2023-04-05T11:01:48.654Z,5.70
2023-04-05T11:03:00.227Z,5.90
2023-04-05T11:04:13.102Z,5.90
2023-04-05T11:05:35.868Z,5.90
2023-04-05T11:06:40.254Z,6.00
2023-04-05T11:07:44.737Z,6.00
2023-04-05T11:08:51.056Z,5.80
2023-04-05T11:10:00.808Z,5.80
2023-04-05T11:11:05.622Z,6.30
2023-04-05T11:12:09.334Z,6.00
2023-04-05T11:13:12.225Z,6.10
2023-04-05T11:14:25.836Z,6.10
2023-04-05T11:15:33.513Z,5.80
2023-04-05T11:16:41.801Z,8.70
2023-04-05T11:17:44.679Z,6.30
2023-04-05T11:18:52.753Z,6.40
2023-04-05T11:20:07.161Z,6.40
2023-04-05T11:21:12.155Z,6.40
2023-04-05T11:22:26.832Z,6.40
2023-04-05T11:23:30.390Z,6.60
2023-04-05T11:24:54.050Z,6.30
2023-04-05T11:26:06.512Z,6.20
2023-04-05T11:27:10.820Z,6.30
2023-04-05T11:28:30.233Z,5.60
2023-04-05T11:29:54.452Z,6.40
2023-04-05T11:30:59.147Z,6.70
2023-04-05T11:32:13.299Z,3.20
2023-04-05T11:33:40.093Z,6.40
2023-04-05T11:35:02.776Z,6.50
2023-04-05T11:36:16.308Z,6.50
2023-04-05T11:37:19.295Z,6.60
2023-04-05T11:38:23.636Z,6.60
2023-04-05T11:39:30.560Z,6.60
2023-04-05T11:40:39.533Z,6.60
2023-04-05T11:41:43.098Z,6.70
2023-04-05T11:42:50.111Z,6.70
2023-04-05T11:43:55.049Z,6.70
2023-04-05T11:44:58.780Z,6.70
2023-04-05T11:46:06.339Z,6.50
2023-04-05T11:47:11.136Z,6.40
2023-04-05T11:48:16.071Z,5.10
2023-04-05T11:49:26.331Z,6.60
2023-04-05T11:50:30.865Z,6.60
2023-04-05T11:51:35.449Z,5.20
2023-04-05T11:52:39.115Z,6.90
2023-04-05T11:53:47.470Z,6.80
2023-04-05T11:54:52.135Z,6.70
2023-04-05T11:55:59.065Z,6.90
2023-04-05T11:57:07.058Z,7.00
2023-04-05T11:58:14.412Z,7.20
2023-04-05T11:59:31.209Z,7.30
2023-04-05T12:00:38.376Z,7.20
2023-04-05T12:01:47.212Z,7.00
2023-04-05T12:02:52.213Z,6.80
2023-04-05T12:04:17.394Z,6.50
2023-04-05T12:05:24.374Z,6.30
2023-04-05T12:06:30.148Z,6.30
2023-04-05T12:07:37.278Z,6.40
2023-04-05T12:08:50.604Z,3.40
2023-04-05T12:10:03.090Z,6.30
2023-04-05T12:11:10.336Z,6.40
2023-04-05T12:12:17.394Z,6.50
2023-04-05T12:13:27.768Z,6.60
2023-04-05T12:14:33.771Z,6.60
2023-04-05T12:15:40.898Z,6.70
2023-04-05T12:16:50.306Z,6.80
2023-04-05T12:17:54.673Z,9.90
2023-04-05T12:18:59.296Z,6.90
2023-04-05T12:20:03.505Z,6.90
2023-04-05T12:21:10.061Z,6.90
2023-04-05T12:22:13.760Z,7.30
2023-04-05T12:23:19.276Z,7.10
2023-04-05T12:24:22.159Z,7.10
2023-04-05T12:25:27.392Z,7.10
2023-04-05T12:26:34.292Z,7.20
2023-04-05T12:27:38.323Z,7.20
2023-04-05T12:28:51.431Z,7.20
2023-04-05T12:30:15.995Z,7.00
2023-04-05T12:31:35.290Z,6.90
2023-04-05T12:32:49.849Z,6.90
2023-04-05T12:34:00.441Z,6.80
2023-04-05T12:35:11.441Z,6.90
2023-04-05T12:36:18.609Z,9.10
2023-04-05T12:37:21.711Z,7.00
2023-04-05T12:38:29.973Z,7.00
2023-04-05T12:39:34.325Z,6.90
2023-04-05T12:40:42.125Z,7.00
2023-04-05T12:41:50.589Z,8.30
2023-04-05T12:43:02.693Z,6.90
2023-04-05T12:44:11.570Z,6.90
2023-04-05T12:45:15.781Z,7.00
2023-04-05T12:46:20.173Z,7.00
2023-04-05T12:47:22.985Z,7.00
2023-04-05T12:48:29.278Z,7.00
2023-04-05T12:49:39.808Z,7.00
2023-04-05T12:50:51.107Z,3.70
2023-04-05T12:51:54.722Z,7.00
2023-04-05T12:53:00.041Z,7.10
2023-04-05T12:54:05.859Z,7.00
2023-04-05T12:55:18.967Z,7.00
2023-04-05T12:56:25.988Z,7.00
2023-04-05T12:57:31.964Z,6.90
2023-04-05T12:58:40.235Z,7.00
2023-04-05T12:59:43.134Z,7.00
2023-04-05T13:00:50.441Z,7.00
2023-04-05T13:01:53.066Z,7.10
2023-04-05T13:03:00.083Z,7.10
2023-04-05T13:04:15.358Z,7.10
2023-04-05T13:05:19.806Z,7.30
2023-04-05T13:06:24.946Z,7.40
2023-04-05T13:07:27.383Z,7.60
2023-04-05T13:08:32.354Z,7.70
2023-04-05T13:09:39.074Z,10.60
2023-04-05T13:10:42.869Z,7.90
2023-04-05T13:11:46.025Z,8.10
2023-04-05T13:12:52.875Z,8.10
2023-04-05T13:13:58.538Z,11.50
2023-04-05T13:15:00.932Z,8.00
2023-04-05T13:16:04.805Z,7.80
2023-04-05T13:17:11.440Z,7.70
2023-04-05T13:18:18.084Z,8.30
2023-04-05T13:19:24.958Z,7.50
2023-04-05T13:20:28.464Z,7.60
2023-04-05T13:21:34.052Z,7.60
2023-04-05T13:22:38.088Z,7.60
2023-04-05T13:23:42.565Z,7.70
2023-04-05T13:24:46.638Z,7.70
2023-04-05T13:25:50.033Z,7.70
2023-04-05T13:26:52.482Z,9.80
2023-04-05T13:27:56.163Z,10.60
2023-04-05T13:29:02.025Z,8.60
2023-04-05T13:30:08.950Z,7.60
2023-04-05T13:31:16.069Z,7.70
2023-04-05T13:32:27.927Z,8.10
2023-04-05T13:33:32.132Z,7.70
2023-04-05T13:34:38.003Z,7.70
2023-04-05T13:35:42.222Z,7.70
2023-04-05T13:36:49.200Z,7.60
2023-04-05T13:37:52.687Z,7.40
2023-04-05T13:38:55.303Z,4.50
2023-04-05T13:40:00.533Z,7.40
2023-04-05T13:41:04.348Z,7.30
2023-04-05T13:42:06.981Z,7.30
2023-04-05T13:43:11.001Z,7.20
2023-04-05T13:44:14.371Z,7.20
2023-04-05T13:45:17.937Z,8.70
2023-04-05T13:46:22.585Z,7.30
2023-04-05T13:47:26.258Z,9.70
2023-04-05T13:48:28.792Z,7.30
2023-04-05T13:49:32.324Z,7.30
2023-04-05T13:50:37.424Z,7.20
2023-04-05T13:51:44.109Z,7.20
2023-04-05T13:52:47.981Z,7.20
2023-04-05T13:53:54.946Z,7.20
2023-04-05T13:55:01.955Z,7.20
2023-04-05T13:56:08.154Z,8.00
2023-04-05T13:57:14.293Z,7.00
2023-04-05T13:58:20.710Z,7.00
2023-04-05T13:59:23.406Z,6.90
2023-04-05T14:00:27.400Z,6.70
2023-04-05T14:01:30.589Z,6.60
2023-04-05T14:02:34.224Z,6.70
2023-04-05T14:03:37.142Z,6.50
2023-04-05T14:04:40.909Z,6.60
2023-04-05T14:05:50.305Z,6.60
2023-04-05T14:06:53.874Z,6.40
2023-04-05T14:07:57.324Z,6.40
2023-04-05T14:08:59.647Z,6.40
2023-04-05T14:10:06.178Z,6.60
2023-04-05T14:11:08.880Z,6.60
2023-04-05T14:12:14.142Z,7.00
2023-04-05T14:13:17.838Z,6.70
2023-04-05T14:14:26.147Z,6.70
2023-04-05T14:15:30.091Z,7.20
2023-04-05T14:16:32.850Z,6.70
2023-04-05T14:17:36.743Z,6.60
2023-04-05T14:18:39.116Z,6.60
2023-04-05T14:19:42.575Z,5.80
2023-04-05T14:20:45.060Z,6.60
2023-04-05T14:21:56.186Z,6.70
2023-04-05T14:22:59.812Z,6.50
2023-04-05T14:24:04.950Z,6.80
2023-04-05T14:25:14.628Z,6.70
2023-04-05T14:26:18.300Z,6.80
2023-04-05T14:27:26.684Z,6.80
2023-04-05T14:28:29.305Z,6.90
2023-04-05T14:29:35.882Z,6.90
2023-04-05T14:30:38.740Z,7.00
2023-04-05T14:31:42.260Z,7.00
2023-04-05T14:32:45.955Z,7.00
2023-04-05T14:33:49.690Z,7.90
2023-04-05T14:34:52.101Z,7.00
2023-04-05T14:35:56.299Z,6.90
2023-04-05T14:37:03.703Z,7.00
2023-04-05T14:38:06.840Z,7.00
2023-04-05T14:39:10.107Z,7.80
2023-04-05T14:40:14.524Z,4.00
2023-04-05T14:41:19.375Z,8.60
2023-04-05T14:42:22.923Z,7.20
2023-04-05T14:43:27.973Z,6.90
2023-04-05T14:44:30.598Z,7.60
2023-04-05T14:45:34.494Z,6.80
2023-04-05T14:46:36.900Z,4.50
2023-04-05T14:47:40.366Z,6.80
2023-04-05T14:48:43.544Z,6.80
2023-04-05T14:49:46.944Z,6.80
2023-04-05T14:50:49.497Z,6.80
2023-04-05T14:51:53.194Z,6.70
2023-04-05T14:52:55.861Z,6.80
2023-04-05T14:54:02.436Z,6.70
2023-04-05T14:55:05.435Z,6.40
2023-04-05T14:56:11.141Z,6.70
2023-04-05T14:57:16.503Z,6.60